sensor_id;sensor_type;location;lat;lon;timestamp;P1;durP1;ratioP1;P2;durP2;ratioP2
13951;SDS011;39535;52.192;9.886;2022-09-09T00:00:11;1.30;;;0.70;;
13951;SDS011;39535;52.192;9.886;2022-09-09T00:02:40;0.90;;;0.90;;
13951;SDS011;39535;52.192;9.886;2022-09-09T00:05:14;1.90;;;0.97;;
13951;SDS011;39535;52.192;9.886;2022-09-09T00:07:53;2.10;;;0.80;;
13951;SDS011;39535;52.192;9.886;2022-09-09T00:10:24;2.00;;;0.90;;
13951;SDS011;39535;52.192;9.886;2022-09-09T00:12:55;0.63;;;0.63;;
13951;SDS011;39535;52.192;9.886;2022-09-09T00:15:26;0.83;;;0.50;;
13951;SDS011;39535;52.192;9.886;2022-09-09T00:18:00;0.63;;;0.63;;
13951;SDS011;39535;52.192;9.886;2022-09-09T00:20:35;1.27;;;0.80;;
13951;SDS011;39535;52.192;9.886;2022-09-09T00:23:11;0.77;;;0.67;;
13951;SDS011;39535;52.192;9.886;2022-09-09T00:25:42;0.97;;;0.70;;
13951;SDS011;39535;52.192;9.886;2022-09-09T00:28:16;1.53;;;0.80;;
13951;SDS011;39535;52.192;9.886;2022-09-09T00:30:46;0.90;;;0.90;;
13951;SDS011;39535;52.192;9.886;2022-09-09T00:33:15;0.87;;;0.70;;
13951;SDS011;39535;52.192;9.886;2022-09-09T00:35:44;1.40;;;0.80;;
13951;SDS011;39535;52.192;9.886;2022-09-09T00:38:13;2.43;;;1.00;;
13951;SDS011;39535;52.192;9.886;2022-09-09T00:40:48;2.27;;;0.73;;
13951;SDS011;39535;52.192;9.886;2022-09-09T00:43:27;3.03;;;0.80;;
13951;SDS011;39535;52.192;9.886;2022-09-09T00:45:59;0.93;;;0.50;;
13951;SDS011;39535;52.192;9.886;2022-09-09T00:48:38;1.30;;;1.20;;
13951;SDS011;39535;52.192;9.886;2022-09-09T00:51:14;1.33;;;0.50;;
13951;SDS011;39535;52.192;9.886;2022-09-09T00:53:55;1.20;;;0.70;;
13951;SDS011;39535;52.192;9.886;2022-09-09T00:56:37;1.80;;;1.03;;
13951;SDS011;39535;52.192;9.886;2022-09-09T00:59:12;0.90;;;0.47;;
13951;SDS011;39535;52.192;9.886;2022-09-09T01:01:47;1.57;;;0.60;;
13951;SDS011;39535;52.192;9.886;2022-09-09T01:04:16;1.67;;;0.60;;
13951;SDS011;39535;52.192;9.886;2022-09-09T01:06:50;0.97;;;0.70;;
13951;SDS011;39535;52.192;9.886;2022-09-09T01:09:27;0.87;;;0.70;;
13951;SDS011;39535;52.192;9.886;2022-09-09T01:12:05;1.00;;;0.63;;
13951;SDS011;39535;52.192;9.886;2022-09-09T01:14:40;1.67;;;0.83;;
13951;SDS011;39535;52.192;9.886;2022-09-09T01:17:12;2.93;;;0.60;;
13951;SDS011;39535;52.192;9.886;2022-09-09T01:19:45;1.17;;;0.70;;
13951;SDS011;39535;52.192;9.886;2022-09-09T01:22:22;1.20;;;0.63;;
13951;SDS011;39535;52.192;9.886;2022-09-09T01:27:56;0.53;;;0.53;;
13951;SDS011;39535;52.192;9.886;2022-09-09T01:30:26;2.60;;;0.97;;
13951;SDS011;39535;52.192;9.886;2022-09-09T01:32:54;1.40;;;0.67;;
13951;SDS011;39535;52.192;9.886;2022-09-09T01:35:27;2.50;;;0.70;;
13951;SDS011;39535;52.192;9.886;2022-09-09T01:38:00;1.00;;;0.90;;
13951;SDS011;39535;52.192;9.886;2022-09-09T01:40:26;0.60;;;0.60;;
13951;SDS011;39535;52.192;9.886;2022-09-09T01:42:53;0.83;;;0.60;;
13951;SDS011;39535;52.192;9.886;2022-09-09T01:45:22;2.97;;;0.80;;
13951;SDS011;39535;52.192;9.886;2022-09-09T01:47:50;1.23;;;0.87;;
13951;SDS011;39535;52.192;9.886;2022-09-09T01:50:18;1.93;;;0.80;;
13951;SDS011;39535;52.192;9.886;2022-09-09T01:52:45;0.70;;;0.70;;
13951;SDS011;39535;52.192;9.886;2022-09-09T01:55:16;1.03;;;0.77;;
13951;SDS011;39535;52.192;9.886;2022-09-09T01:57:48;0.80;;;0.80;;
13951;SDS011;39535;52.192;9.886;2022-09-09T02:00:23;1.20;;;0.67;;
13951;SDS011;39535;52.192;9.886;2022-09-09T02:02:53;1.90;;;0.90;;
13951;SDS011;39535;52.192;9.886;2022-09-09T02:05:30;1.43;;;0.80;;
13951;SDS011;39535;52.192;9.886;2022-09-09T02:08:03;1.50;;;0.60;;
13951;SDS011;39535;52.192;9.886;2022-09-09T02:10:35;1.07;;;0.60;;
13951;SDS011;39535;52.192;9.886;2022-09-09T02:13:07;1.47;;;0.70;;
13951;SDS011;39535;52.192;9.886;2022-09-09T02:15:40;0.97;;;0.60;;
13951;SDS011;39535;52.192;9.886;2022-09-09T02:18:11;5.67;;;1.07;;
13951;SDS011;39535;52.192;9.886;2022-09-09T02:20:41;1.43;;;0.70;;
13951;SDS011;39535;52.192;9.886;2022-09-09T02:23:11;0.70;;;0.70;;
13951;SDS011;39535;52.192;9.886;2022-09-09T02:25:40;2.90;;;1.00;;
13951;SDS011;39535;52.192;9.886;2022-09-09T02:28:09;2.13;;;0.83;;
13951;SDS011;39535;52.192;9.886;2022-09-09T02:30:40;2.63;;;1.13;;
13951;SDS011;39535;52.192;9.886;2022-09-09T02:33:08;0.70;;;0.70;;
13951;SDS011;39535;52.192;9.886;2022-09-09T02:35:37;0.83;;;0.83;;
13951;SDS011;39535;52.192;9.886;2022-09-09T02:38:07;3.53;;;0.90;;
13951;SDS011;39535;52.192;9.886;2022-09-09T02:40:37;1.37;;;0.70;;
13951;SDS011;39535;52.192;9.886;2022-09-09T02:43:04;2.20;;;0.80;;
13951;SDS011;39535;52.192;9.886;2022-09-09T02:45:32;0.93;;;0.60;;
13951;SDS011;39535;52.192;9.886;2022-09-09T02:48:07;0.70;;;0.60;;
13951;SDS011;39535;52.192;9.886;2022-09-09T02:50:41;1.33;;;0.80;;
13951;SDS011;39535;52.192;9.886;2022-09-09T02:53:19;0.93;;;0.63;;
13951;SDS011;39535;52.192;9.886;2022-09-09T02:55:50;0.60;;;0.60;;
13951;SDS011;39535;52.192;9.886;2022-09-09T02:58:21;1.33;;;0.70;;
13951;SDS011;39535;52.192;9.886;2022-09-09T03:00:49;2.63;;;0.90;;
13951;SDS011;39535;52.192;9.886;2022-09-09T03:03:19;1.17;;;0.70;;
13951;SDS011;39535;52.192;9.886;2022-09-09T03:05:47;0.80;;;0.70;;
13951;SDS011;39535;52.192;9.886;2022-09-09T03:08:13;0.77;;;0.73;;
13951;SDS011;39535;52.192;9.886;2022-09-09T03:10:40;2.30;;;0.90;;
13951;SDS011;39535;52.192;9.886;2022-09-09T03:13:07;2.40;;;1.10;;
13951;SDS011;39535;52.192;9.886;2022-09-09T03:15:34;2.37;;;0.97;;
13951;SDS011;39535;52.192;9.886;2022-09-09T03:18:01;2.43;;;1.00;;
13951;SDS011;39535;52.192;9.886;2022-09-09T03:20:29;2.87;;;1.20;;
13951;SDS011;39535;52.192;9.886;2022-09-09T03:22:56;2.60;;;1.13;;
13951;SDS011;39535;52.192;9.886;2022-09-09T03:25:24;1.83;;;1.10;;
13951;SDS011;39535;52.192;9.886;2022-09-09T03:27:51;1.77;;;1.17;;
13951;SDS011;39535;52.192;9.886;2022-09-09T03:30:20;1.83;;;0.90;;
13951;SDS011;39535;52.192;9.886;2022-09-09T03:32:46;2.70;;;0.90;;
13951;SDS011;39535;52.192;9.886;2022-09-09T03:35:13;1.23;;;0.80;;
13951;SDS011;39535;52.192;9.886;2022-09-09T03:37:41;1.33;;;0.90;;
13951;SDS011;39535;52.192;9.886;2022-09-09T03:40:08;4.33;;;1.00;;
13951;SDS011;39535;52.192;9.886;2022-09-09T03:42:35;1.67;;;1.00;;
13951;SDS011;39535;52.192;9.886;2022-09-09T03:45:03;1.43;;;0.80;;
13951;SDS011;39535;52.192;9.886;2022-09-09T03:47:30;2.03;;;0.90;;
13951;SDS011;39535;52.192;9.886;2022-09-09T03:49:56;3.10;;;1.03;;
13951;SDS011;39535;52.192;9.886;2022-09-09T03:52:22;2.37;;;1.10;;
13951;SDS011;39535;52.192;9.886;2022-09-09T03:54:52;4.87;;;1.10;;
13951;SDS011;39535;52.192;9.886;2022-09-09T03:57:19;1.90;;;1.10;;
13951;SDS011;39535;52.192;9.886;2022-09-09T03:59:45;2.07;;;1.20;;
13951;SDS011;39535;52.192;9.886;2022-09-09T04:02:12;1.90;;;1.10;;
13951;SDS011;39535;52.192;9.886;2022-09-09T04:04:38;1.53;;;1.03;;
13951;SDS011;39535;52.192;9.886;2022-09-09T04:07:04;1.00;;;0.80;;
13951;SDS011;39535;52.192;9.886;2022-09-09T04:09:32;2.43;;;1.13;;
13951;SDS011;39535;52.192;9.886;2022-09-09T04:11:59;2.00;;;1.20;;
13951;SDS011;39535;52.192;9.886;2022-09-09T04:14:26;2.63;;;1.00;;
13951;SDS011;39535;52.192;9.886;2022-09-09T04:16:53;2.00;;;1.00;;
13951;SDS011;39535;52.192;9.886;2022-09-09T04:19:22;1.70;;;0.90;;
13951;SDS011;39535;52.192;9.886;2022-09-09T04:21:49;0.80;;;0.80;;
13951;SDS011;39535;52.192;9.886;2022-09-09T04:24:16;1.33;;;1.23;;
13951;SDS011;39535;52.192;9.886;2022-09-09T04:26:43;2.27;;;1.00;;
13951;SDS011;39535;52.192;9.886;2022-09-09T04:29:11;1.73;;;1.00;;
13951;SDS011;39535;52.192;9.886;2022-09-09T04:31:38;2.47;;;1.20;;
13951;SDS011;39535;52.192;9.886;2022-09-09T04:34:06;2.33;;;1.10;;
13951;SDS011;39535;52.192;9.886;2022-09-09T04:36:33;1.77;;;1.10;;
13951;SDS011;39535;52.192;9.886;2022-09-09T04:39:00;1.13;;;0.97;;
13951;SDS011;39535;52.192;9.886;2022-09-09T04:41:27;7.43;;;1.03;;
13951;SDS011;39535;52.192;9.886;2022-09-09T04:43:53;2.13;;;1.10;;
13951;SDS011;39535;52.192;9.886;2022-09-09T04:46:21;1.53;;;1.20;;
13951;SDS011;39535;52.192;9.886;2022-09-09T04:48:48;2.23;;;1.03;;
13951;SDS011;39535;52.192;9.886;2022-09-09T04:51:17;2.93;;;1.00;;
13951;SDS011;39535;52.192;9.886;2022-09-09T04:53:48;4.10;;;1.20;;
13951;SDS011;39535;52.192;9.886;2022-09-09T04:56:16;3.47;;;1.57;;
13951;SDS011;39535;52.192;9.886;2022-09-09T04:58:44;5.27;;;1.43;;
13951;SDS011;39535;52.192;9.886;2022-09-09T05:01:11;1.23;;;1.03;;
13951;SDS011;39535;52.192;9.886;2022-09-09T05:03:40;2.00;;;1.00;;
13951;SDS011;39535;52.192;9.886;2022-09-09T05:06:07;1.67;;;1.33;;
13951;SDS011;39535;52.192;9.886;2022-09-09T05:08:35;1.50;;;1.27;;
13951;SDS011;39535;52.192;9.886;2022-09-09T05:11:02;1.60;;;1.20;;
13951;SDS011;39535;52.192;9.886;2022-09-09T05:13:29;2.37;;;0.83;;
13951;SDS011;39535;52.192;9.886;2022-09-09T05:15:57;1.10;;;1.00;;
13951;SDS011;39535;52.192;9.886;2022-09-09T05:18:23;2.53;;;1.17;;
13951;SDS011;39535;52.192;9.886;2022-09-09T05:20:51;1.03;;;1.03;;
13951;SDS011;39535;52.192;9.886;2022-09-09T05:23:17;1.73;;;1.13;;
13951;SDS011;39535;52.192;9.886;2022-09-09T05:25:53;1.10;;;1.00;;
13951;SDS011;39535;52.192;9.886;2022-09-09T05:28:21;1.07;;;1.03;;
13951;SDS011;39535;52.192;9.886;2022-09-09T05:30:54;1.83;;;1.10;;
13951;SDS011;39535;52.192;9.886;2022-09-09T05:33:22;1.83;;;1.20;;
13951;SDS011;39535;52.192;9.886;2022-09-09T05:35:55;3.03;;;1.67;;
13951;SDS011;39535;52.192;9.886;2022-09-09T05:38:23;4.10;;;1.27;;
13951;SDS011;39535;52.192;9.886;2022-09-09T05:40:50;1.80;;;1.33;;
13951;SDS011;39535;52.192;9.886;2022-09-09T05:43:17;4.20;;;1.40;;
13951;SDS011;39535;52.192;9.886;2022-09-09T05:45:43;1.90;;;1.10;;
13951;SDS011;39535;52.192;9.886;2022-09-09T05:48:12;2.67;;;1.53;;
13951;SDS011;39535;52.192;9.886;2022-09-09T05:50:40;3.40;;;1.10;;
13951;SDS011;39535;52.192;9.886;2022-09-09T05:53:07;2.87;;;1.60;;
13951;SDS011;39535;52.192;9.886;2022-09-09T05:55:34;1.57;;;1.10;;
13951;SDS011;39535;52.192;9.886;2022-09-09T05:58:01;2.67;;;1.30;;
13951;SDS011;39535;52.192;9.886;2022-09-09T06:00:27;2.23;;;1.20;;
13951;SDS011;39535;52.192;9.886;2022-09-09T06:02:56;3.97;;;1.20;;
13951;SDS011;39535;52.192;9.886;2022-09-09T06:05:22;6.03;;;1.80;;
13951;SDS011;39535;52.192;9.886;2022-09-09T06:07:52;2.83;;;1.30;;
13951;SDS011;39535;52.192;9.886;2022-09-09T06:10:20;2.20;;;1.43;;
13951;SDS011;39535;52.192;9.886;2022-09-09T06:12:52;4.43;;;1.77;;
13951;SDS011;39535;52.192;9.886;2022-09-09T06:15:19;1.53;;;1.20;;
13951;SDS011;39535;52.192;9.886;2022-09-09T06:17:46;2.27;;;1.47;;
13951;SDS011;39535;52.192;9.886;2022-09-09T06:20:12;2.33;;;1.50;;
13951;SDS011;39535;52.192;9.886;2022-09-09T06:22:39;4.03;;;1.70;;
13951;SDS011;39535;52.192;9.886;2022-09-09T06:25:07;3.37;;;1.40;;
13951;SDS011;39535;52.192;9.886;2022-09-09T06:27:35;3.77;;;2.10;;
13951;SDS011;39535;52.192;9.886;2022-09-09T06:30:02;2.07;;;1.30;;
13951;SDS011;39535;52.192;9.886;2022-09-09T06:32:29;1.83;;;1.17;;
13951;SDS011;39535;52.192;9.886;2022-09-09T06:34:56;2.00;;;1.57;;
13951;SDS011;39535;52.192;9.886;2022-09-09T06:37:23;4.13;;;1.50;;
13951;SDS011;39535;52.192;9.886;2022-09-09T06:39:51;2.50;;;1.90;;
13951;SDS011;39535;52.192;9.886;2022-09-09T06:42:17;2.77;;;1.50;;
13951;SDS011;39535;52.192;9.886;2022-09-09T06:44:45;2.43;;;1.50;;
13951;SDS011;39535;52.192;9.886;2022-09-09T06:47:11;2.93;;;1.10;;
13951;SDS011;39535;52.192;9.886;2022-09-09T06:49:38;2.17;;;1.30;;
13951;SDS011;39535;52.192;9.886;2022-09-09T06:52:04;1.40;;;1.30;;
13951;SDS011;39535;52.192;9.886;2022-09-09T06:54:31;2.47;;;1.50;;
13951;SDS011;39535;52.192;9.886;2022-09-09T06:56:57;3.47;;;1.30;;
13951;SDS011;39535;52.192;9.886;2022-09-09T06:59:25;2.40;;;0.80;;
13951;SDS011;39535;52.192;9.886;2022-09-09T07:01:53;2.43;;;1.33;;
13951;SDS011;39535;52.192;9.886;2022-09-09T07:04:20;2.40;;;1.40;;
13951;SDS011;39535;52.192;9.886;2022-09-09T07:06:46;1.70;;;1.40;;
13951;SDS011;39535;52.192;9.886;2022-09-09T07:09:13;4.33;;;1.43;;
13951;SDS011;39535;52.192;9.886;2022-09-09T07:11:41;1.13;;;0.90;;
13951;SDS011;39535;52.192;9.886;2022-09-09T07:14:09;2.43;;;1.50;;
13951;SDS011;39535;52.192;9.886;2022-09-09T07:16:37;1.20;;;1.10;;
13951;SDS011;39535;52.192;9.886;2022-09-09T07:19:05;1.20;;;1.10;;
13951;SDS011;39535;52.192;9.886;2022-09-09T07:21:32;2.30;;;1.43;;
13951;SDS011;39535;52.192;9.886;2022-09-09T07:23:59;1.30;;;1.10;;
13951;SDS011;39535;52.192;9.886;2022-09-09T07:26:27;3.20;;;1.13;;
13951;SDS011;39535;52.192;9.886;2022-09-09T07:28:54;4.97;;;1.20;;
13951;SDS011;39535;52.192;9.886;2022-09-09T07:31:22;2.53;;;1.30;;
13951;SDS011;39535;52.192;9.886;2022-09-09T07:33:51;6.37;;;1.10;;
13951;SDS011;39535;52.192;9.886;2022-09-09T07:36:19;1.63;;;1.13;;
13951;SDS011;39535;52.192;9.886;2022-09-09T07:38:48;1.60;;;1.03;;
13951;SDS011;39535;52.192;9.886;2022-09-09T07:41:17;3.67;;;1.40;;
13951;SDS011;39535;52.192;9.886;2022-09-09T07:43:46;4.57;;;1.00;;
13951;SDS011;39535;52.192;9.886;2022-09-09T07:46:14;1.30;;;1.10;;
13951;SDS011;39535;52.192;9.886;2022-09-09T07:48:43;2.07;;;0.90;;
13951;SDS011;39535;52.192;9.886;2022-09-09T07:51:11;2.10;;;1.13;;
13951;SDS011;39535;52.192;9.886;2022-09-09T07:53:41;2.00;;;1.00;;
13951;SDS011;39535;52.192;9.886;2022-09-09T07:56:08;3.33;;;1.07;;
13951;SDS011;39535;52.192;9.886;2022-09-09T07:58:36;2.30;;;1.20;;
13951;SDS011;39535;52.192;9.886;2022-09-09T08:01:07;3.13;;;1.40;;
13951;SDS011;39535;52.192;9.886;2022-09-09T08:03:36;1.50;;;0.97;;
13951;SDS011;39535;52.192;9.886;2022-09-09T08:06:04;1.80;;;0.97;;
13951;SDS011;39535;52.192;9.886;2022-09-09T08:08:32;2.23;;;1.30;;
13951;SDS011;39535;52.192;9.886;2022-09-09T08:11:04;2.37;;;1.13;;
13951;SDS011;39535;52.192;9.886;2022-09-09T08:13:32;2.03;;;1.00;;
13951;SDS011;39535;52.192;9.886;2022-09-09T08:16:09;1.47;;;1.30;;
13951;SDS011;39535;52.192;9.886;2022-09-09T08:18:36;1.97;;;1.10;;
13951;SDS011;39535;52.192;9.886;2022-09-09T08:21:07;2.13;;;1.10;;
13951;SDS011;39535;52.192;9.886;2022-09-09T08:23:36;4.50;;;1.20;;
13951;SDS011;39535;52.192;9.886;2022-09-09T08:26:06;2.30;;;0.97;;
13951;SDS011;39535;52.192;9.886;2022-09-09T08:28:35;2.27;;;1.57;;
13951;SDS011;39535;52.192;9.886;2022-09-09T08:31:08;2.87;;;1.13;;
13951;SDS011;39535;52.192;9.886;2022-09-09T08:33:37;1.07;;;0.90;;
13951;SDS011;39535;52.192;9.886;2022-09-09T08:36:04;1.47;;;0.80;;
13951;SDS011;39535;52.192;9.886;2022-09-09T08:38:32;2.50;;;1.00;;
13951;SDS011;39535;52.192;9.886;2022-09-09T08:41:00;2.83;;;1.10;;
13951;SDS011;39535;52.192;9.886;2022-09-09T08:43:39;2.20;;;1.30;;
13951;SDS011;39535;52.192;9.886;2022-09-09T08:46:09;2.00;;;0.90;;
13951;SDS011;39535;52.192;9.886;2022-09-09T08:48:46;1.37;;;1.13;;
13951;SDS011;39535;52.192;9.886;2022-09-09T08:51:21;1.90;;;0.90;;
13951;SDS011;39535;52.192;9.886;2022-09-09T08:53:51;1.03;;;0.90;;
13951;SDS011;39535;52.192;9.886;2022-09-09T08:56:21;4.67;;;1.00;;
13951;SDS011;39535;52.192;9.886;2022-09-09T08:58:50;2.30;;;0.90;;
13951;SDS011;39535;52.192;9.886;2022-09-09T09:01:23;3.30;;;1.07;;
13951;SDS011;39535;52.192;9.886;2022-09-09T09:04:02;2.83;;;1.20;;
13951;SDS011;39535;52.192;9.886;2022-09-09T09:06:39;2.07;;;1.03;;
13951;SDS011;39535;52.192;9.886;2022-09-09T09:09:16;3.37;;;1.13;;
13951;SDS011;39535;52.192;9.886;2022-09-09T09:11:49;4.43;;;1.00;;
13951;SDS011;39535;52.192;9.886;2022-09-09T09:14:19;1.87;;;1.10;;
13951;SDS011;39535;52.192;9.886;2022-09-09T09:16:49;1.50;;;1.00;;
13951;SDS011;39535;52.192;9.886;2022-09-09T09:19:18;2.17;;;1.00;;
13951;SDS011;39535;52.192;9.886;2022-09-09T09:21:48;3.27;;;0.90;;
13951;SDS011;39535;52.192;9.886;2022-09-09T09:24:20;3.03;;;0.93;;
13951;SDS011;39535;52.192;9.886;2022-09-09T09:26:51;1.47;;;0.90;;
13951;SDS011;39535;52.192;9.886;2022-09-09T09:29:18;2.40;;;0.90;;
13951;SDS011;39535;52.192;9.886;2022-09-09T09:31:47;1.67;;;1.30;;
13951;SDS011;39535;52.192;9.886;2022-09-09T09:34:18;1.40;;;0.80;;
13951;SDS011;39535;52.192;9.886;2022-09-09T09:36:46;1.37;;;0.97;;
13951;SDS011;39535;52.192;9.886;2022-09-09T09:39:22;2.57;;;0.70;;
13951;SDS011;39535;52.192;9.886;2022-09-09T09:41:52;1.70;;;1.00;;
13951;SDS011;39535;52.192;9.886;2022-09-09T09:44:22;2.33;;;1.17;;
13951;SDS011;39535;52.192;9.886;2022-09-09T09:46:50;1.87;;;0.87;;
13951;SDS011;39535;52.192;9.886;2022-09-09T09:49:16;1.87;;;0.90;;
13951;SDS011;39535;52.192;9.886;2022-09-09T09:51:43;5.63;;;1.10;;
13951;SDS011;39535;52.192;9.886;2022-09-09T09:54:14;1.77;;;1.10;;
13951;SDS011;39535;52.192;9.886;2022-09-09T09:56:44;2.73;;;1.00;;
13951;SDS011;39535;52.192;9.886;2022-09-09T09:59:31;2.73;;;0.80;;
13951;SDS011;39535;52.192;9.886;2022-09-09T10:02:06;1.23;;;0.70;;
13951;SDS011;39535;52.192;9.886;2022-09-09T10:04:43;1.70;;;0.73;;
13951;SDS011;39535;52.192;9.886;2022-09-09T10:07:11;2.23;;;1.10;;
13951;SDS011;39535;52.192;9.886;2022-09-09T10:09:39;1.63;;;1.10;;
13951;SDS011;39535;52.192;9.886;2022-09-09T10:12:08;1.83;;;0.90;;
13951;SDS011;39535;52.192;9.886;2022-09-09T10:14:52;3.33;;;1.10;;
13951;SDS011;39535;52.192;9.886;2022-09-09T10:17:28;2.27;;;0.73;;
13951;SDS011;39535;52.192;9.886;2022-09-09T10:20:10;3.67;;;1.03;;
13951;SDS011;39535;52.192;9.886;2022-09-09T10:22:47;3.03;;;1.03;;
13951;SDS011;39535;52.192;9.886;2022-09-09T10:25:26;3.33;;;0.80;;
13951;SDS011;39535;52.192;9.886;2022-09-09T10:28:18;1.63;;;1.00;;
13951;SDS011;39535;52.192;9.886;2022-09-09T10:31:04;1.07;;;0.90;;
13951;SDS011;39535;52.192;9.886;2022-09-09T10:33:44;1.77;;;0.77;;
13951;SDS011;39535;52.192;9.886;2022-09-09T10:36:17;2.53;;;0.83;;
13951;SDS011;39535;52.192;9.886;2022-09-09T10:38:46;1.77;;;0.60;;
13951;SDS011;39535;52.192;9.886;2022-09-09T10:41:17;1.37;;;0.80;;
13951;SDS011;39535;52.192;9.886;2022-09-09T10:43:51;3.10;;;0.80;;
13951;SDS011;39535;52.192;9.886;2022-09-09T10:46:34;1.30;;;0.60;;
13951;SDS011;39535;52.192;9.886;2022-09-09T10:49:15;1.60;;;0.47;;
13951;SDS011;39535;52.192;9.886;2022-09-09T10:51:53;0.93;;;0.50;;
13951;SDS011;39535;52.192;9.886;2022-09-09T10:54:30;2.00;;;0.50;;
13951;SDS011;39535;52.192;9.886;2022-09-09T10:57:08;2.47;;;0.93;;
13951;SDS011;39535;52.192;9.886;2022-09-09T10:59:42;2.63;;;0.67;;
13951;SDS011;39535;52.192;9.886;2022-09-09T11:02:15;1.10;;;0.73;;
13951;SDS011;39535;52.192;9.886;2022-09-09T11:04:45;1.93;;;0.70;;
13951;SDS011;39535;52.192;9.886;2022-09-09T11:07:18;1.00;;;0.80;;
13951;SDS011;39535;52.192;9.886;2022-09-09T11:09:52;2.63;;;0.77;;
13951;SDS011;39535;52.192;9.886;2022-09-09T11:12:24;1.93;;;0.70;;
13951;SDS011;39535;52.192;9.886;2022-09-09T11:14:54;1.37;;;0.73;;
13951;SDS011;39535;52.192;9.886;2022-09-09T11:17:28;2.50;;;0.97;;
13951;SDS011;39535;52.192;9.886;2022-09-09T11:20:04;2.33;;;0.90;;
13951;SDS011;39535;52.192;9.886;2022-09-09T11:22:32;2.13;;;0.80;;
13951;SDS011;39535;52.192;9.886;2022-09-09T11:25:04;1.60;;;0.70;;
13951;SDS011;39535;52.192;9.886;2022-09-09T11:27:37;1.53;;;0.70;;
13951;SDS011;39535;52.192;9.886;2022-09-09T11:30:21;3.40;;;1.20;;
13951;SDS011;39535;52.192;9.886;2022-09-09T11:35:45;4.03;;;0.87;;
13951;SDS011;39535;52.192;9.886;2022-09-09T11:38:21;1.57;;;0.60;;
13951;SDS011;39535;52.192;9.886;2022-09-09T11:40:56;1.17;;;0.60;;
13951;SDS011;39535;52.192;9.886;2022-09-09T11:43:26;1.50;;;0.60;;
13951;SDS011;39535;52.192;9.886;2022-09-09T11:45:56;1.53;;;0.80;;
13951;SDS011;39535;52.192;9.886;2022-09-09T11:48:28;1.40;;;0.80;;
13951;SDS011;39535;52.192;9.886;2022-09-09T11:50:59;3.50;;;0.87;;
13951;SDS011;39535;52.192;9.886;2022-09-09T11:53:28;2.17;;;0.63;;
13951;SDS011;39535;52.192;9.886;2022-09-09T11:56:09;3.57;;;1.30;;
13951;SDS011;39535;52.192;9.886;2022-09-09T11:58:38;1.73;;;1.07;;
13951;SDS011;39535;52.192;9.886;2022-09-09T12:04:22;1.33;;;0.50;;
13951;SDS011;39535;52.192;9.886;2022-09-09T12:06:56;1.87;;;0.70;;
13951;SDS011;39535;52.192;9.886;2022-09-09T12:09:27;3.13;;;1.00;;
13951;SDS011;39535;52.192;9.886;2022-09-09T12:12:07;1.37;;;0.67;;
13951;SDS011;39535;52.192;9.886;2022-09-09T12:14:57;0.77;;;0.67;;
13951;SDS011;39535;52.192;9.886;2022-09-09T12:17:26;1.00;;;0.60;;
13951;SDS011;39535;52.192;9.886;2022-09-09T12:20:06;1.10;;;0.70;;
13951;SDS011;39535;52.192;9.886;2022-09-09T12:22:41;2.00;;;0.50;;
13951;SDS011;39535;52.192;9.886;2022-09-09T12:25:21;1.00;;;0.47;;
13951;SDS011;39535;52.192;9.886;2022-09-09T12:27:57;0.90;;;0.50;;
13951;SDS011;39535;52.192;9.886;2022-09-09T12:30:31;1.60;;;0.93;;
13951;SDS011;39535;52.192;9.886;2022-09-09T12:33:06;1.83;;;0.80;;
13951;SDS011;39535;52.192;9.886;2022-09-09T12:35:38;1.60;;;0.60;;
13951;SDS011;39535;52.192;9.886;2022-09-09T12:38:06;1.43;;;0.60;;
13951;SDS011;39535;52.192;9.886;2022-09-09T12:40:39;1.43;;;0.60;;
13951;SDS011;39535;52.192;9.886;2022-09-09T12:43:17;1.07;;;0.50;;
13951;SDS011;39535;52.192;9.886;2022-09-09T12:45:46;0.83;;;0.67;;
13951;SDS011;39535;52.192;9.886;2022-09-09T12:48:15;2.10;;;0.93;;
13951;SDS011;39535;52.192;9.886;2022-09-09T12:50:47;1.77;;;0.67;;
13951;SDS011;39535;52.192;9.886;2022-09-09T12:53:17;1.50;;;0.80;;
13951;SDS011;39535;52.192;9.886;2022-09-09T12:55:50;1.37;;;0.70;;
13951;SDS011;39535;52.192;9.886;2022-09-09T12:58:18;1.13;;;0.80;;
13951;SDS011;39535;52.192;9.886;2022-09-09T13:00:48;1.50;;;0.80;;
13951;SDS011;39535;52.192;9.886;2022-09-09T13:03:17;2.23;;;0.77;;
13951;SDS011;39535;52.192;9.886;2022-09-09T13:05:47;3.60;;;0.87;;
13951;SDS011;39535;52.192;9.886;2022-09-09T13:08:14;1.77;;;0.70;;
13951;SDS011;39535;52.192;9.886;2022-09-09T13:10:46;2.63;;;0.80;;
13951;SDS011;39535;52.192;9.886;2022-09-09T13:13:19;2.20;;;0.70;;
13951;SDS011;39535;52.192;9.886;2022-09-09T13:15:49;1.47;;;0.67;;
13951;SDS011;39535;52.192;9.886;2022-09-09T13:18:17;1.00;;;0.70;;
13951;SDS011;39535;52.192;9.886;2022-09-09T13:20:49;1.37;;;0.63;;
13951;SDS011;39535;52.192;9.886;2022-09-09T13:23:17;1.23;;;0.90;;
13951;SDS011;39535;52.192;9.886;2022-09-09T13:25:52;0.80;;;0.60;;
13951;SDS011;39535;52.192;9.886;2022-09-09T13:28:20;2.47;;;0.93;;
13951;SDS011;39535;52.192;9.886;2022-09-09T13:30:55;1.07;;;0.50;;
13951;SDS011;39535;52.192;9.886;2022-09-09T13:33:29;2.00;;;0.80;;
13951;SDS011;39535;52.192;9.886;2022-09-09T13:35:59;1.93;;;1.00;;
13951;SDS011;39535;52.192;9.886;2022-09-09T13:38:30;2.07;;;0.97;;
13951;SDS011;39535;52.192;9.886;2022-09-09T13:40:58;1.47;;;0.70;;
13951;SDS011;39535;52.192;9.886;2022-09-09T13:43:29;1.30;;;0.80;;
13951;SDS011;39535;52.192;9.886;2022-09-09T13:45:58;1.00;;;0.80;;
13951;SDS011;39535;52.192;9.886;2022-09-09T13:48:26;1.23;;;0.87;;
13951;SDS011;39535;52.192;9.886;2022-09-09T13:50:59;0.70;;;0.57;;
13951;SDS011;39535;52.192;9.886;2022-09-09T13:53:28;1.03;;;0.70;;
13951;SDS011;39535;52.192;9.886;2022-09-09T13:55:55;1.60;;;0.70;;
13951;SDS011;39535;52.192;9.886;2022-09-09T13:58:22;1.57;;;0.80;;
13951;SDS011;39535;52.192;9.886;2022-09-09T14:00:50;3.20;;;0.80;;
13951;SDS011;39535;52.192;9.886;2022-09-09T14:03:17;1.67;;;0.70;;
13951;SDS011;39535;52.192;9.886;2022-09-09T14:05:44;1.17;;;0.63;;
13951;SDS011;39535;52.192;9.886;2022-09-09T14:08:15;2.63;;;0.80;;
13951;SDS011;39535;52.192;9.886;2022-09-09T14:10:47;1.87;;;0.80;;
13951;SDS011;39535;52.192;9.886;2022-09-09T14:13:13;2.20;;;1.00;;
13951;SDS011;39535;52.192;9.886;2022-09-09T14:15:40;1.83;;;1.00;;
13951;SDS011;39535;52.192;9.886;2022-09-09T14:18:08;2.00;;;0.90;;
13951;SDS011;39535;52.192;9.886;2022-09-09T14:20:35;2.83;;;1.10;;
13951;SDS011;39535;52.192;9.886;2022-09-09T14:23:03;1.47;;;0.80;;
13951;SDS011;39535;52.192;9.886;2022-09-09T14:25:31;3.80;;;1.40;;
13951;SDS011;39535;52.192;9.886;2022-09-09T14:27:58;2.07;;;1.07;;
13951;SDS011;39535;52.192;9.886;2022-09-09T14:30:24;1.80;;;1.20;;
13951;SDS011;39535;52.192;9.886;2022-09-09T14:32:51;2.03;;;0.90;;
13951;SDS011;39535;52.192;9.886;2022-09-09T14:35:17;1.63;;;0.90;;
13951;SDS011;39535;52.192;9.886;2022-09-09T14:37:44;1.60;;;0.80;;
13951;SDS011;39535;52.192;9.886;2022-09-09T14:40:11;1.20;;;0.80;;
13951;SDS011;39535;52.192;9.886;2022-09-09T14:42:40;1.53;;;1.00;;
13951;SDS011;39535;52.192;9.886;2022-09-09T14:45:07;1.87;;;1.30;;
13951;SDS011;39535;52.192;9.886;2022-09-09T14:47:34;0.97;;;0.60;;
13951;SDS011;39535;52.192;9.886;2022-09-09T14:50:01;2.63;;;0.80;;
13951;SDS011;39535;52.192;9.886;2022-09-09T14:52:30;1.27;;;0.73;;
13951;SDS011;39535;52.192;9.886;2022-09-09T14:54:56;1.43;;;0.80;;
13951;SDS011;39535;52.192;9.886;2022-09-09T14:57:23;1.87;;;0.60;;
13951;SDS011;39535;52.192;9.886;2022-09-09T14:59:50;1.27;;;0.63;;
13951;SDS011;39535;52.192;9.886;2022-09-09T15:02:18;1.10;;;0.63;;
13951;SDS011;39535;52.192;9.886;2022-09-09T15:04:44;0.70;;;0.50;;
13951;SDS011;39535;52.192;9.886;2022-09-09T15:07:11;1.17;;;0.60;;
13951;SDS011;39535;52.192;9.886;2022-09-09T15:09:37;0.50;;;0.50;;
13951;SDS011;39535;52.192;9.886;2022-09-09T15:12:04;1.07;;;0.50;;
13951;SDS011;39535;52.192;9.886;2022-09-09T15:14:30;0.53;;;0.50;;